Time;durP1;ratioP1;P1;durP2;ratioP2;P2;SDS_P1;SDS_P2;PMS_P1;PMS_P2;Temp;Humidity;BMP_temperature;BMP_pressure;BME280_temperature;BME280_humidity;BME280_pressure;Samples;Min_cycle;Max_cycle;Signal;HPM_P1;HPM_P2
2022/12/06 00:00:20;;;;;;;16.67;9.15;;;;;;;;;;5056419;28;20048;-76
2022/12/06 00:03:05;;;;;;;56.53;26.88;;;;;;;;;;5055611;28;20037;-76
2022/12/06 00:05:51;;;;;;;14.95;7.43;;;;;;;;;;5056208;28;20049;-77
2022/12/06 00:08:37;;;;;;;31.05;15.95;;;;;;;;;;5064072;28;20041;-76
2022/12/06 00:11:27;;;;;;;24.15;12.95;;;;;;;;;;5062525;28;20045;-76
2022/12/06 00:14:13;;;;;;;25.98;12.48;;;;;;;;;;5063083;28;20048;-76
2022/12/06 00:16:58;;;;;;;22.73;11.35;;;;;;;;;;5062501;28;20040;-76
2022/12/06 00:19:44;;;;;;;36.92;15.13;;;;;;;;;;5063998;28;20045;-76
2022/12/06 00:22:29;;;;;;;20.40;11.23;;;;;;;;;;5060527;28;20394;-76
2022/12/06 00:25:24;;;;;;;26.40;15.00;;;;;;;;;;5062180;28;20057;-77
2022/12/06 00:28:10;;;;;;;31.27;16.27;;;;;;;;;;5055251;28;20045;-76
2022/12/06 00:31:00;;;;;;;21.95;11.57;;;;;;;;;;5055086;28;20478;-74
2022/12/06 00:33:46;;;;;;;20.75;11.73;;;;;;;;;;5040219;28;20048;-75
2022/12/06 00:36:33;;;;;;;18.58;10.18;;;;;;;;;;5039763;28;20045;-75
2022/12/06 00:39:19;;;;;;;19.73;10.70;;;;;;;;;;5055102;28;20037;-73
2022/12/06 00:42:04;;;;;;;23.17;11.07;;;;;;;;;;5054613;28;20502;-75
2022/12/06 00:44:50;;;;;;;19.13;11.55;;;;;;;;;;5055384;28;20041;-75
2022/12/06 00:47:36;;;;;;;19.42;11.38;;;;;;;;;;5054927;28;20045;-75
2022/12/06 00:50:21;;;;;;;17.27;9.95;;;;;;;;;;5056117;28;20048;-76
2022/12/06 00:53:07;;;;;;;18.23;10.88;;;;;;;;;;5056391;28;20053;-76
2022/12/06 00:55:54;;;;;;;19.15;10.52;;;;;;;;;;5054708;28;20414;-77
2022/12/06 00:58:40;;;;;;;18.88;9.65;;;;;;;;;;5054945;28;20037;-76
2022/12/06 01:01:28;;;;;;;21.02;10.75;;;;;;;;;;5055039;28;20049;-76
2022/12/06 01:04:13;;;;;;;18.83;10.80;;;;;;;;;;5060819;28;20402;-76
2022/12/06 01:06:59;;;;;;;22.15;11.32;;;;;;;;;;5061612;28;20045;-76
2022/12/06 01:09:44;;;;;;;25.08;12.32;;;;;;;;;;5054255;28;20041;-76
2022/12/06 01:12:30;;;;;;;20.35;10.73;;;;;;;;;;5061340;28;20049;-76
2022/12/06 01:15:15;;;;;;;20.27;10.70;;;;;;;;;;5039665;28;20040;-76
2022/12/06 01:18:02;;;;;;;25.85;11.90;;;;;;;;;;5054539;28;20394;-75
2022/12/06 01:20:47;;;;;;;19.85;10.93;;;;;;;;;;5060843;28;20041;-75
2022/12/06 01:23:33;;;;;;;23.88;11.68;;;;;;;;;;5054474;28;20048;-75
2022/12/06 01:26:22;;;;;;;33.03;14.93;;;;;;;;;;5054043;28;20048;-76
2022/12/06 01:29:06;;;;;;;21.60;11.55;;;;;;;;;;5062000;28;20041;-77
2022/12/06 01:31:52;;;;;;;20.00;10.55;;;;;;;;;;5057404;28;20053;-77
2022/12/06 01:34:38;;;;;;;32.15;15.65;;;;;;;;;;5085216;28;20036;-77
2022/12/06 01:37:23;;;;;;;34.53;19.15;;;;;;;;;;5060409;28;20053;-75
2022/12/06 01:40:10;;;;;;;42.83;21.60;;;;;;;;;;5060475;28;20044;-75
2022/12/06 01:42:55;;;;;;;41.35;20.10;;;;;;;;;;5054031;28;20041;-75
2022/12/06 01:45:41;;;;;;;44.03;22.50;;;;;;;;;;5053898;28;20486;-76
2022/12/06 01:48:27;;;;;;;43.20;23.17;;;;;;;;;;5060504;28;20037;-77
2022/12/06 01:51:14;;;;;;;41.03;21.13;;;;;;;;;;5060328;28;20469;-76
2022/12/06 01:54:02;;;;;;;48.10;21.38;;;;;;;;;;5053452;28;20478;-75
2022/12/06 01:56:48;;;;;;;47.78;25.35;;;;;;;;;;5053655;28;20049;-76
2022/12/06 01:59:35;;;;;;;51.55;24.75;;;;;;;;;;5053966;28;20045;-76
2022/12/06 02:02:21;;;;;;;57.20;25.92;;;;;;;;;;5053661;28;20045;-75
2022/12/06 02:05:07;;;;;;;109.75;46.20;;;;;;;;;;5053497;28;20041;-76
2022/12/06 02:07:52;;;;;;;79.60;35.75;;;;;;;;;;5053374;28;20482;-75
2022/12/06 02:10:37;;;;;;;44.67;21.73;;;;;;;;;;5053519;28;20402;-76
2022/12/06 02:13:24;;;;;;;46.70;22.70;;;;;;;;;;5038367;28;20045;-76
2022/12/06 02:16:21;;;;;;;39.25;21.55;;;;;;;;;;5054148;28;20490;-77
2022/12/06 02:19:49;;;;;;;44.28;22.77;;;;;;;;;;5053693;28;20044;-76
2022/12/06 02:22:58;;;;;;;50.47;22.73;;;;;;;;;;5052121;28;20037;-76
2022/12/06 02:25:56;;;;;;;55.40;24.75;;;;;;;;;;5053463;28;20486;-76
2022/12/06 02:29:01;;;;;;;100.20;38.50;;;;;;;;;;5053291;28;20045;-76
2022/12/06 02:32:02;;;;;;;18.58;7.60;;;;;;;;;;5060262;28;20053;-76
2022/12/06 02:35:11;;;;;;;45.72;21.10;;;;;;;;;;5053205;28;20049;-76
2022/12/06 02:38:13;;;;;;;50.30;23.75;;;;;;;;;;5059933;28;20045;-75
2022/12/06 02:41:24;;;;;;;41.88;21.63;;;;;;;;;;5053160;28;20037;-76
2022/12/06 02:44:24;;;;;;;48.33;21.65;;;;;;;;;;5052639;28;20056;-75
2022/12/06 02:47:11;;;;;;;40.75;22.63;;;;;;;;;;5057368;28;20037;-76
2022/12/06 02:49:58;;;;;;;44.45;20.00;;;;;;;;;;5063495;28;20049;-77
2022/12/06 02:52:49;;;;;;;16.88;7.13;;;;;;;;;;5056935;28;20048;-76
2022/12/06 02:55:35;;;;;;;36.38;18.15;;;;;;;;;;5056909;28;20049;-76
2022/12/06 02:58:20;;;;;;;41.35;18.92;;;;;;;;;;5057368;28;20053;-77
2022/12/06 03:01:15;;;;;;;41.10;17.92;;;;;;;;;;5057122;28;20390;-75
2022/12/06 03:04:04;;;;;;;37.33;16.20;;;;;;;;;;5056586;28;20037;-77
2022/12/06 03:06:55;;;;;;;32.30;16.58;;;;;;;;;;5056929;28;20045;-77
2022/12/06 03:09:49;;;;;;;32.03;15.45;;;;;;;;;;5056580;28;20037;-77
2022/12/06 03:13:09;;;;;;;35.40;17.67;;;;;;;;;;5057256;28;20053;-76
2022/12/06 03:15:57;;;;;;;30.60;15.85;;;;;;;;;;5058421;28;20052;-75
2022/12/06 03:18:58;;;;;;;32.83;14.32;;;;;;;;;;5057144;28;20485;-76
2022/12/06 03:21:50;;;;;;;20.95;9.57;;;;;;;;;;5064398;28;20053;-75
2022/12/06 03:24:38;;;;;;;38.05;18.85;;;;;;;;;;5062658;28;20037;-76
2022/12/06 03:27:26;;;;;;;35.90;17.63;;;;;;;;;;5056216;28;20044;-75
2022/12/06 03:30:13;;;;;;;30.70;15.57;;;;;;;;;;5062795;28;20052;-75
2022/12/06 03:32:59;;;;;;;31.17;15.90;;;;;;;;;;5056152;28;20041;-74
2022/12/06 03:35:46;;;;;;;35.03;16.40;;;;;;;;;;5062970;28;20041;-76
2022/12/06 03:38:36;;;;;;;31.38;17.13;;;;;;;;;;5056178;28;20044;-75
2022/12/06 03:41:23;;;;;;;35.40;18.02;;;;;;;;;;5055951;28;20052;-77
2022/12/06 03:44:08;;;;;;;26.65;13.70;;;;;;;;;;5058621;28;20037;-77
2022/12/06 03:47:22;;;;;;;36.17;16.83;;;;;;;;;;5087972;28;20052;-77
2022/12/06 03:50:15;;;;;;;35.13;18.08;;;;;;;;;;5062828;28;20049;-75
2022/12/06 03:53:01;;;;;;;35.17;19.20;;;;;;;;;;5055721;28;20041;-76
2022/12/06 03:55:46;;;;;;;42.40;21.08;;;;;;;;;;5062744;28;20041;-75
2022/12/06 03:58:32;;;;;;;43.80;22.20;;;;;;;;;;5055766;28;20401;-76
2022/12/06 04:01:17;;;;;;;50.15;24.60;;;;;;;;;;5055684;28;20037;-76
2022/12/06 04:04:04;;;;;;;31.83;17.23;;;;;;;;;;5055422;28;20041;-76
2022/12/06 04:06:51;;;;;;;45.22;22.02;;;;;;;;;;5055973;28;20048;-76
2022/12/06 04:09:51;;;;;;;34.25;18.58;;;;;;;;;;5062176;28;20045;-76
2022/12/06 04:15:39;;;;;;;35.15;15.90;;;;;;;;;;5057461;28;20037;-77
2022/12/06 04:18:24;;;;;;;33.22;17.15;;;;;;;;;;5049154;28;20041;-76
2022/12/06 04:24:13;;;;;;;32.30;14.13;;;;;;;;;;5047161;28;20049;-75
2022/12/06 04:28:40;;;;;;;41.95;19.42;;;;;;;;;;5057243;28;20053;-75
2022/12/06 04:39:16;;;;;;;34.75;15.60;;;;;;;;;;5055199;28;20044;-77
2022/12/06 04:45:07;;;;;;;34.60;17.73;;;;;;;;;;5054648;28;20048;-76
2022/12/06 04:47:52;;;;;;;36.88;16.80;;;;;;;;;;5039891;28;20051;-75
2022/12/06 04:50:37;;;;;;;39.35;18.15;;;;;;;;;;5056981;28;20053;-76
2022/12/06 04:53:22;;;;;;;29.65;15.50;;;;;;;;;;5054921;28;20049;-76
2022/12/06 04:56:08;;;;;;;29.85;15.52;;;;;;;;;;5055201;28;20040;-76
2022/12/06 04:58:54;;;;;;;46.38;21.98;;;;;;;;;;5055084;28;20045;-76
2022/12/06 05:01:40;;;;;;;56.03;27.30;;;;;;;;;;5054743;28;20033;-75
2022/12/06 05:04:25;;;;;;;102.63;40.50;;;;;;;;;;5054132;28;20041;-77
2022/12/06 05:07:12;;;;;;;44.63;23.05;;;;;;;;;;5054227;28;20044;-77
2022/12/06 05:09:57;;;;;;;39.88;20.60;;;;;;;;;;5057067;28;20052;-76
2022/12/06 05:12:43;;;;;;;38.97;20.85;;;;;;;;;;5061228;28;20049;-76
2022/12/06 05:15:29;;;;;;;42.72;22.02;;;;;;;;;;5061128;28;20439;-77
2022/12/06 05:18:14;;;;;;;61.22;29.63;;;;;;;;;;5063716;28;20053;-76
2022/12/06 05:21:10;;;;;;;35.08;17.38;;;;;;;;;;5065691;28;20048;-75
2022/12/06 05:23:55;;;;;;;48.92;23.05;;;;;;;;;;5057586;28;20045;-77
2022/12/06 05:26:41;;;;;;;48.58;25.08;;;;;;;;;;5055379;28;20041;-75
2022/12/06 05:29:26;;;;;;;39.65;20.90;;;;;;;;;;5063557;28;20057;-76
2022/12/06 05:32:12;;;;;;;46.53;22.42;;;;;;;;;;5053964;28;20044;-77
2022/12/06 05:34:57;;;;;;;56.33;25.42;;;;;;;;;;5055113;28;20045;-77
2022/12/06 05:37:43;;;;;;;53.83;26.40;;;;;;;;;;5060134;28;20044;-77
2022/12/06 05:40:29;;;;;;;41.92;16.20;;;;;;;;;;5046134;28;20049;-78
2022/12/06 05:43:15;;;;;;;46.75;22.27;;;;;;;;;;5058678;28;20401;-76
2022/12/06 05:45:59;;;;;;;41.97;20.30;;;;;;;;;;5045521;28;20479;-77
2022/12/06 05:48:45;;;;;;;64.10;27.55;;;;;;;;;;5052866;28;20037;-76
2022/12/06 05:51:30;;;;;;;60.40;26.70;;;;;;;;;;5060162;28;20049;-75
2022/12/06 05:54:16;;;;;;;68.93;30.92;;;;;;;;;;5055660;28;20037;-76
2022/12/06 05:57:01;;;;;;;94.32;36.17;;;;;;;;;;5061801;28;20045;-76
2022/12/06 05:59:47;;;;;;;103.97;42.42;;;;;;;;;;5070119;28;20029;-76
2022/12/06 06:02:33;;;;;;;86.88;37.72;;;;;;;;;;5074399;28;20049;-76
2022/12/06 06:05:18;;;;;;;77.85;32.75;;;;;;;;;;5061089;28;20482;-76
2022/12/06 06:08:04;;;;;;;91.05;36.97;;;;;;;;;;5053189;28;20048;-77
2022/12/06 06:10:50;;;;;;;94.43;41.83;;;;;;;;;;5064381;28;20041;-76
2022/12/06 06:13:35;;;;;;;115.97;52.70;;;;;;;;;;5056689;28;20049;-76
2022/12/06 06:16:20;;;;;;;78.55;35.70;;;;;;;;;;5051179;28;20044;-77
2022/12/06 06:19:06;;;;;;;91.78;38.63;;;;;;;;;;5050622;28;20089;-77
2022/12/06 06:21:51;;;;;;;73.82;33.33;;;;;;;;;;5056536;28;20053;-77
2022/12/06 06:24:38;;;;;;;91.43;38.80;;;;;;;;;;5066279;28;20049;-77
2022/12/06 06:27:25;;;;;;;62.65;31.77;;;;;;;;;;5070825;28;20041;-77
2022/12/06 06:30:12;;;;;;;58.60;28.70;;;;;;;;;;5061821;28;20045;-74
2022/12/06 06:32:57;;;;;;;50.22;25.85;;;;;;;;;;5057416;28;20049;-77
2022/12/06 06:35:42;;;;;;;67.88;32.03;;;;;;;;;;5066864;28;20045;-77
2022/12/06 06:38:28;;;;;;;64.63;30.88;;;;;;;;;;5065116;28;20044;-75
2022/12/06 06:41:14;;;;;;;70.80;33.25;;;;;;;;;;5065375;28;20052;-76
2022/12/06 06:43:59;;;;;;;63.45;31.48;;;;;;;;;;5061090;28;20052;-76
2022/12/06 06:46:45;;;;;;;65.38;30.42;;;;;;;;;;5064529;28;20041;-76
2022/12/06 06:49:30;;;;;;;60.75;32.25;;;;;;;;;;5057493;28;20049;-76
2022/12/06 06:52:16;;;;;;;84.50;38.72;;;;;;;;;;5057447;28;20045;-76
2022/12/06 06:55:02;;;;;;;76.78;37.17;;;;;;;;;;5058218;28;20513;-76
2022/12/06 06:57:47;;;;;;;74.00;35.80;;;;;;;;;;5061642;28;20390;-76
2022/12/06 07:00:34;;;;;;;77.30;38.53;;;;;;;;;;5059141;28;20041;-75
2022/12/06 07:03:19;;;;;;;87.97;43.17;;;;;;;;;;5056878;28;20045;-76
2022/12/06 07:06:09;;;;;;;116.07;52.15;;;;;;;;;;5056690;28;20045;-77
2022/12/06 07:08:54;;;;;;;140.02;58.75;;;;;;;;;;5061044;28;20045;-76
2022/12/06 07:11:40;;;;;;;125.25;54.75;;;;;;;;;;5056762;28;20076;-77
2022/12/06 07:14:25;;;;;;;114.53;54.53;;;;;;;;;;5062992;28;20048;-77
2022/12/06 07:17:11;;;;;;;134.85;56.92;;;;;;;;;;5057917;28;20037;-75
2022/12/06 07:19:57;;;;;;;146.18;64.85;;;;;;;;;;5056985;28;20398;-74
2022/12/06 07:22:42;;;;;;;139.50;62.22;;;;;;;;;;5056546;28;20041;-76
2022/12/06 07:25:28;;;;;;;112.40;46.25;;;;;;;;;;5055874;28;20402;-76
2022/12/06 07:28:13;;;;;;;123.68;59.08;;;;;;;;;;5056195;28;20041;-77
2022/12/06 07:31:07;;;;;;;110.38;49.15;;;;;;;;;;5056270;28;20045;-75
2022/12/06 07:33:55;;;;;;;118.13;55.73;;;;;;;;;;5062897;28;20402;-75
2022/12/06 07:36:40;;;;;;;68.93;34.28;;;;;;;;;;5062716;28;20517;-77
2022/12/06 07:39:26;;;;;;;95.63;45.83;;;;;;;;;;5056274;28;20036;-75
2022/12/06 07:45:15;;;;;;;80.43;39.00;;;;;;;;;;5040853;28;20041;-75
2022/12/06 07:47:59;;;;;;;96.40;44.00;;;;;;;;;;5056749;28;20041;-74
2022/12/06 07:50:46;;;;;;;97.03;48.08;;;;;;;;;;5055750;28;20482;-75
2022/12/06 07:53:31;;;;;;;126.53;63.95;;;;;;;;;;5062274;28;20049;-76
2022/12/06 07:56:16;;;;;;;99.38;48.65;;;;;;;;;;5056008;28;20485;-76
2022/12/06 07:59:02;;;;;;;99.40;48.08;;;;;;;;;;5062573;28;20049;-76
2022/12/06 08:01:48;;;;;;;98.88;47.22;;;;;;;;;;5057814;28;20045;-76
2022/12/06 08:04:34;;;;;;;90.60;46.10;;;;;;;;;;5056926;28;20415;-74
2022/12/06 08:07:24;;;;;;;83.63;40.63;;;;;;;;;;5059268;28;20041;-76
2022/12/06 08:10:10;;;;;;;79.22;41.83;;;;;;;;;;5055357;28;20483;-77
2022/12/06 08:12:55;;;;;;;85.97;40.70;;;;;;;;;;5067061;28;20041;-77
2022/12/06 08:15:40;;;;;;;89.88;43.35;;;;;;;;;;5082003;28;20036;-76
2022/12/06 08:18:26;;;;;;;79.13;40.72;;;;;;;;;;5063642;28;20048;-76
2022/12/06 08:21:12;;;;;;;73.65;39.38;;;;;;;;;;5062154;28;20048;-75
2022/12/06 08:23:57;;;;;;;70.43;35.25;;;;;;;;;;5063953;28;20033;-77
2022/12/06 08:26:43;;;;;;;69.20;34.38;;;;;;;;;;5062780;28;20048;-76
2022/12/06 08:29:29;;;;;;;101.15;47.55;;;;;;;;;;5063378;28;20045;-75
2022/12/06 08:32:14;;;;;;;86.93;44.15;;;;;;;;;;5055175;28;20045;-75
2022/12/06 08:34:59;;;;;;;109.78;50.88;;;;;;;;;;5061495;28;20045;-76
2022/12/06 08:37:45;;;;;;;36.78;17.75;;;;;;;;;;5061791;28;20041;-76
2022/12/06 08:40:31;;;;;;;49.28;28.85;;;;;;;;;;5055194;28;20486;-75
2022/12/06 08:43:16;;;;;;;43.53;21.33;;;;;;;;;;5059497;28;20403;-76
2022/12/06 08:46:02;;;;;;;63.33;29.92;;;;;;;;;;5061302;28;20053;-76
2022/12/06 08:48:47;;;;;;;51.55;28.17;;;;;;;;;;5054816;28;20052;-75
2022/12/06 08:51:35;;;;;;;58.33;29.50;;;;;;;;;;5054070;28;20053;-76
2022/12/06 08:54:23;;;;;;;57.97;31.50;;;;;;;;;;5061108;28;20052;-76
2022/12/06 08:57:08;;;;;;;63.42;34.85;;;;;;;;;;5063317;28;20398;-77
2022/12/06 08:59:54;;;;;;;71.05;39.72;;;;;;;;;;5059774;28;20044;-77
2022/12/06 09:02:40;;;;;;;64.78;34.72;;;;;;;;;;5057337;28;20037;-77
2022/12/06 09:05:26;;;;;;;71.55;35.08;;;;;;;;;;5063539;28;20386;-76
2022/12/06 09:08:12;;;;;;;62.75;33.88;;;;;;;;;;5060898;28;20052;-77
2022/12/06 09:10:57;;;;;;;69.85;38.50;;;;;;;;;;5056474;28;20056;-76
2022/12/06 09:13:43;;;;;;;71.97;36.20;;;;;;;;;;5056178;28;20045;-77
2022/12/06 09:16:28;;;;;;;58.58;33.95;;;;;;;;;;5054035;28;20041;-82
2022/12/06 09:19:14;;;;;;;71.20;33.72;;;;;;;;;;5054109;28;20045;-84
2022/12/06 09:21:59;;;;;;;62.33;33.33;;;;;;;;;;5044290;28;20045;-86
2022/12/06 09:24:45;;;;;;;76.05;41.97;;;;;;;;;;5056611;28;20049;-80
2022/12/06 09:27:31;;;;;;;91.97;45.45;;;;;;;;;;5054242;28;20049;-80
2022/12/06 09:30:17;;;;;;;122.25;54.13;;;;;;;;;;5061350;28;20037;-85
2022/12/06 09:33:03;;;;;;;128.30;61.28;;;;;;;;;;5059925;28;20049;-85
2022/12/06 09:35:52;;;;;;;125.07;64.32;;;;;;;;;;5053460;28;20048;-85
2022/12/06 09:38:39;;;;;;;50.75;26.10;;;;;;;;;;5053711;28;20044;-83
2022/12/06 09:41:30;;;;;;;32.92;15.45;;;;;;;;;;5053518;28;20053;-83
2022/12/06 09:44:35;;;;;;;34.63;17.27;;;;;;;;;;5041994;28;20049;-78
2022/12/06 09:48:05;;;;;;;20.30;10.93;;;;;;;;;;5054179;28;20049;-78
2022/12/06 09:51:13;;;;;;;34.25;17.13;;;;;;;;;;5063431;28;20044;-77
2022/12/06 09:54:11;;;;;;;34.47;16.45;;;;;;;;;;5054287;28;20475;-77
2022/12/06 09:56:59;;;;;;;26.13;15.20;;;;;;;;;;5062281;28;20044;-77
2022/12/06 10:00:00;;;;;;;26.10;13.88;;;;;;;;;;5061795;28;20485;-78
2022/12/06 10:03:25;;;;;;;24.60;13.38;;;;;;;;;;5060461;28;20045;-79
2022/12/06 10:06:15;;;;;;;16.23;8.95;;;;;;;;;;5055043;28;20049;-80
2022/12/06 10:09:34;;;;;;;19.52;10.13;;;;;;;;;;5054017;28;20045;-79
2022/12/06 10:12:42;;;;;;;16.15;9.57;;;;;;;;;;5053132;28;20041;-77
2022/12/06 10:16:05;;;;;;;12.55;7.47;;;;;;;;;;5053842;28;20402;-77
2022/12/06 10:19:13;;;;;;;16.95;10.50;;;;;;;;;;5060428;28;20053;-78
2022/12/06 10:22:20;;;;;;;26.52;13.88;;;;;;;;;;5061012;28;20040;-80
2022/12/06 10:25:45;;;;;;;17.73;10.10;;;;;;;;;;5061042;28;20049;-81
2022/12/06 10:28:47;;;;;;;27.52;13.40;;;;;;;;;;5071004;28;20056;-80
2022/12/06 10:31:51;;;;;;;20.25;10.80;;;;;;;;;;5061468;28;20041;-78
2022/12/06 10:34:50;;;;;;;23.52;11.30;;;;;;;;;;5053464;28;20432;-79
2022/12/06 10:38:11;;;;;;;22.40;11.80;;;;;;;;;;5053292;28;20041;-77
2022/12/06 10:41:27;;;;;;;21.75;11.23;;;;;;;;;;5052937;28;20037;-78
2022/12/06 10:44:15;;;;;;;20.30;11.63;;;;;;;;;;5052685;28;20061;-78
2022/12/06 10:47:17;;;;;;;23.25;13.18;;;;;;;;;;5053434;28;20049;-77
2022/12/06 10:50:05;;;;;;;20.90;11.32;;;;;;;;;;5053414;28;20049;-79
2022/12/06 10:53:00;;;;;;;15.38;9.43;;;;;;;;;;5059907;28;20431;-77
2022/12/06 10:56:06;;;;;;;16.23;8.95;;;;;;;;;;5053083;28;20037;-79
2022/12/06 10:58:57;;;;;;;26.33;12.80;;;;;;;;;;5052988;28;20041;-78
2022/12/06 11:01:44;;;;;;;18.02;10.38;;;;;;;;;;5052784;28;20486;-78
2022/12/06 11:04:35;;;;;;;35.28;17.73;;;;;;;;;;5059281;28;20053;-76
2022/12/06 11:07:24;;;;;;;20.13;11.90;;;;;;;;;;5055203;28;20402;-78
2022/12/06 11:10:19;;;;;;;15.75;9.38;;;;;;;;;;5056616;28;20037;-78
2022/12/06 11:13:16;;;;;;;19.13;9.80;;;;;;;;;;5056641;28;20045;-77
2022/12/06 11:16:33;;;;;;;17.42;9.88;;;;;;;;;;5056452;28;20057;-80
2022/12/06 11:19:27;;;;;;;13.88;8.48;;;;;;;;;;5039567;28;20482;-78
2022/12/06 11:22:27;;;;;;;20.10;9.80;;;;;;;;;;5056323;28;20045;-78
2022/12/06 11:25:30;;;;;;;21.48;11.05;;;;;;;;;;5056365;28;20041;-78
2022/12/06 11:28:32;;;;;;;23.98;13.40;;;;;;;;;;5056084;28;20398;-79
2022/12/06 11:31:27;;;;;;;33.63;16.75;;;;;;;;;;5056177;28;20041;-77
2022/12/06 11:34:14;;;;;;;;;;;;;;;;;;5056683;28;20055;-77
2022/12/06 11:37:01;;;;;;;36.50;17.90;;;;;;;;;;5063117;28;19912;-79
2022/12/06 11:39:52;;;;;;;25.83;14.68;;;;;;;;;;5063515;28;20040;-78
2022/12/06 11:42:38;;;;;;;24.92;12.88;;;;;;;;;;5063101;28;20037;-79
2022/12/06 11:45:28;;;;;;;23.60;12.23;;;;;;;;;;5062759;28;20040;-78
2022/12/06 11:48:27;;;;;;;23.67;13.77;;;;;;;;;;5063228;28;20041;-78
2022/12/06 11:51:22;;;;;;;25.70;14.07;;;;;;;;;;5056567;28;20052;-78
2022/12/06 11:54:28;;;;;;;26.63;14.10;;;;;;;;;;5062388;28;20041;-79
2022/12/06 11:57:21;;;;;;;;;;;;;;;;;;5062934;28;20049;-78
2022/12/06 12:00:20;;;;;;;25.75;13.35;;;;;;;;;;5056263;28;19946;-78
2022/12/06 12:03:27;;;;;;;30.02;13.43;;;;;;;;;;5055239;28;20049;-77
2022/12/06 12:06:20;;;;;;;31.25;15.43;;;;;;;;;;5061789;28;20049;-79
2022/12/06 12:09:18;;;;;;;26.38;14.30;;;;;;;;;;5061923;28;20045;-77
2022/12/06 12:12:13;;;;;;;25.48;13.55;;;;;;;;;;5061607;28;20044;-77
2022/12/06 12:14:59;;;;;;;25.65;13.82;;;;;;;;;;5055305;28;20044;-78
2022/12/06 12:17:47;;;;;;;34.70;15.88;;;;;;;;;;5054640;28;20045;-78
2022/12/06 12:20:37;;;;;;;31.40;12.68;;;;;;;;;;5055133;28;20040;-79
2022/12/06 12:23:32;;;;;;;29.50;14.52;;;;;;;;;;5055037;28;20041;-78
2022/12/06 12:26:19;;;;;;;26.05;12.73;;;;;;;;;;5054829;28;20049;-79
2022/12/06 12:29:07;;;;;;;26.80;13.73;;;;;;;;;;5055194;28;20116;-79
2022/12/06 12:31:57;;;;;;;22.00;9.90;;;;;;;;;;5056014;28;20056;-78
2022/12/06 12:34:43;;;;;;;26.48;13.00;;;;;;;;;;5054753;28;20057;-79
2022/12/06 12:37:28;;;;;;;29.02;12.68;;;;;;;;;;5055835;28;20045;-79
2022/12/06 12:40:29;;;;;;;23.33;11.30;;;;;;;;;;5070381;28;20025;-76
2022/12/06 12:43:19;;;;;;;24.98;11.70;;;;;;;;;;5070752;28;20045;-77
2022/12/06 12:46:10;;;;;;;24.15;13.35;;;;;;;;;;5053426;28;20489;-79
2022/12/06 12:49:19;;;;;;;30.08;15.52;;;;;;;;;;5054345;28;20478;-78
2022/12/06 12:52:29;;;;;;;26.02;14.02;;;;;;;;;;5061668;28;20048;-78
2022/12/06 12:55:29;;;;;;;24.83;11.88;;;;;;;;;;5061387;28;20382;-78
2022/12/06 12:58:15;;;;;;;21.42;12.63;;;;;;;;;;5054316;28;20041;-78
2022/12/06 13:01:11;;;;;;;23.42;11.90;;;;;;;;;;5054179;28;20490;-80
2022/12/06 13:04:14;;;;;;;22.88;11.82;;;;;;;;;;5040283;28;20049;-80
2022/12/06 13:07:13;;;;;;;26.27;13.98;;;;;;;;;;5054266;28;20049;-78
2022/12/06 13:10:16;;;;;;;20.92;11.75;;;;;;;;;;5054451;28;20045;-79
2022/12/06 13:13:19;;;;;;;31.65;15.75;;;;;;;;;;5054412;28;20041;-79
2022/12/06 13:16:11;;;;;;;21.70;10.82;;;;;;;;;;5060551;28;20044;-79
2022/12/06 13:18:57;;;;;;;28.75;15.10;;;;;;;;;;5060776;28;20049;-78
2022/12/06 13:21:44;;;;;;;38.25;16.35;;;;;;;;;;5054068;28;20053;-79
2022/12/06 13:24:31;;;;;;;28.38;16.05;;;;;;;;;;5060734;28;20044;-78
2022/12/06 13:27:19;;;;;;;35.42;19.10;;;;;;;;;;5060764;28;20382;-78
2022/12/06 13:30:14;;;;;;;35.05;20.35;;;;;;;;;;5061547;28;20045;-77
2022/12/06 13:33:28;;;;;;;38.40;21.23;;;;;;;;;;5057984;28;20033;-77
2022/12/06 13:36:14;;;;;;;36.75;22.30;;;;;;;;;;5060443;28;20045;-80
2022/12/06 13:39:29;;;;;;;52.28;29.15;;;;;;;;;;5054245;28;20391;-76
2022/12/06 13:42:28;;;;;;;46.92;26.20;;;;;;;;;;5023214;28;20049;-78
2022/12/06 13:45:33;;;;;;;42.33;25.95;;;;;;;;;;5053827;28;20416;-77
2022/12/06 13:48:25;;;;;;;34.77;20.60;;;;;;;;;;5061076;28;20041;-78
2022/12/06 13:51:31;;;;;;;44.50;23.65;;;;;;;;;;5053924;28;20483;-77
2022/12/06 13:54:16;;;;;;;39.53;21.50;;;;;;;;;;5060406;28;20041;-78
2022/12/06 13:57:19;;;;;;;42.35;22.02;;;;;;;;;;5054157;28;20176;-77
2022/12/06 14:00:27;;;;;;;55.92;29.27;;;;;;;;;;5059830;28;20037;-77
2022/12/06 14:03:12;;;;;;;45.33;22.42;;;;;;;;;;5053021;28;20498;-78
2022/12/06 14:06:08;;;;;;;48.05;24.65;;;;;;;;;;5053170;28;20041;-77
2022/12/06 14:08:58;;;;;;;47.17;26.52;;;;;;;;;;5060188;28;20053;-77
2022/12/06 14:11:43;;;;;;;61.25;31.83;;;;;;;;;;5054088;28;20057;-77
2022/12/06 14:14:28;;;;;;;64.22;37.58;;;;;;;;;;5053130;28;20037;-77
2022/12/06 14:17:14;;;;;;;71.85;39.28;;;;;;;;;;5059811;28;20040;-78
2022/12/06 14:20:00;;;;;;;116.65;43.30;;;;;;;;;;5059928;28;20382;-77
2022/12/06 14:22:47;;;;;;;77.80;35.22;;;;;;;;;;5052934;28;20056;-77
2022/12/06 14:25:32;;;;;;;32.10;17.45;;;;;;;;;;5052810;28;20045;-78
2022/12/06 14:28:17;;;;;;;22.27;12.15;;;;;;;;;;5060353;28;20470;-78
2022/12/06 14:31:17;;;;;;;17.27;10.57;;;;;;;;;;5053350;28;20057;-79
2022/12/06 14:34:03;;;;;;;46.50;25.45;;;;;;;;;;5053353;28;20036;-78
2022/12/06 14:36:48;;;;;;;38.88;18.33;;;;;;;;;;5053475;28;20057;-77
2022/12/06 14:39:34;;;;;;;72.85;32.63;;;;;;;;;;5053329;28;20390;-79
2022/12/06 14:45:24;;;;;;;69.35;35.65;;;;;;;;;;5057210;28;20036;-79
2022/12/06 14:48:11;;;;;;;61.50;33.63;;;;;;;;;;5056716;28;20038;-79
2022/12/06 14:50:57;;;;;;;79.15;43.20;;;;;;;;;;5055715;28;20048;-79
2022/12/06 14:53:42;;;;;;;87.20;45.75;;;;;;;;;;5085861;28;20052;-78
2022/12/06 14:56:34;;;;;;;83.75;41.28;;;;;;;;;;5061492;28;20068;-80
2022/12/06 14:59:22;;;;;;;87.30;44.33;;;;;;;;;;5058016;28;20394;-80
2022/12/06 15:02:26;;;;;;;77.68;38.05;;;;;;;;;;5057548;28;20064;-79
2022/12/06 15:05:56;;;;;;;81.03;38.28;;;;;;;;;;5062989;28;20052;-81
2022/12/06 15:08:49;;;;;;;75.15;39.90;;;;;;;;;;4956754;29;20468;-79
2022/12/06 15:14:47;;;;;;;89.60;44.03;;;;;;;;;;5060896;28;20049;-79
2022/12/06 15:17:32;;;;;;;194.18;98.88;;;;;;;;;;5055980;28;20040;-80
2022/12/06 15:20:18;;;;;;;68.20;38.03;;;;;;;;;;5056259;28;20049;-79
2022/12/06 15:23:26;;;;;;;80.30;39.45;;;;;;;;;;5062975;28;20049;-79
2022/12/06 15:26:12;;;;;;;121.32;55.72;;;;;;;;;;5055635;28;20048;-80
2022/12/06 15:28:57;;;;;;;150.52;65.18;;;;;;;;;;5056035;28;20040;-80
2022/12/06 15:31:49;;;;;;;94.05;45.58;;;;;;;;;;5062612;28;20052;-83
2022/12/06 15:34:35;;;;;;;100.03;46.00;;;;;;;;;;5055855;28;20398;-83
2022/12/06 15:37:21;;;;;;;88.45;44.60;;;;;;;;;;5057423;28;20053;-83
2022/12/06 15:40:07;;;;;;;103.30;49.03;;;;;;;;;;5059020;28;20045;-82
2022/12/06 15:42:52;;;;;;;122.72;56.67;;;;;;;;;;5057967;28;20045;-83
2022/12/06 15:45:38;;;;;;;126.90;57.05;;;;;;;;;;5056024;28;20491;-83
2022/12/06 15:48:23;;;;;;;98.60;48.05;;;;;;;;;;5055818;28;20053;-82
2022/12/06 15:51:13;;;;;;;116.32;49.83;;;;;;;;;;5047624;28;20045;-84
2022/12/06 15:54:01;;;;;;;127.35;57.60;;;;;;;;;;5054560;28;20044;-82
2022/12/06 15:56:47;;;;;;;124.47;62.30;;;;;;;;;;5056008;28;20041;-84
2022/12/06 15:59:33;;;;;;;111.68;53.83;;;;;;;;;;5056660;28;20053;-83
2022/12/06 16:02:18;;;;;;;88.00;48.25;;;;;;;;;;5056331;28;20041;-84
2022/12/06 16:05:04;;;;;;;94.32;49.75;;;;;;;;;;5062785;28;20053;-84
2022/12/06 16:07:49;;;;;;;106.03;55.22;;;;;;;;;;5060738;28;20044;-82
2022/12/06 16:10:35;;;;;;;104.55;54.95;;;;;;;;;;5058245;28;20041;-83
2022/12/06 16:13:21;;;;;;;107.50;54.45;;;;;;;;;;5040369;28;20044;-83
2022/12/06 16:16:07;;;;;;;100.25;49.50;;;;;;;;;;5054544;28;20485;-83
2022/12/06 16:18:54;;;;;;;93.65;44.05;;;;;;;;;;5054260;28;20401;-83
2022/12/06 16:21:56;;;;;;;106.55;45.17;;;;;;;;;;5054919;28;20070;-84
2022/12/06 16:24:42;;;;;;;96.60;46.50;;;;;;;;;;5055434;28;20041;-82
2022/12/06 16:27:27;;;;;;;101.43;47.53;;;;;;;;;;5054789;28;20044;-82
2022/12/06 16:30:13;;;;;;;97.18;44.33;;;;;;;;;;5055190;28;20046;-83
2022/12/06 16:32:59;;;;;;;79.28;34.78;;;;;;;;;;5054415;28;20494;-82
2022/12/06 16:35:44;;;;;;;92.97;40.70;;;;;;;;;;5039684;28;20053;-81
2022/12/06 16:38:30;;;;;;;65.03;37.38;;;;;;;;;;5054430;28;20045;-82
2022/12/06 16:41:20;;;;;;;79.43;40.70;;;;;;;;;;5054835;28;20433;-82
2022/12/06 16:44:05;;;;;;;78.80;40.17;;;;;;;;;;5054131;28;20041;-82
2022/12/06 16:46:51;;;;;;;80.18;39.08;;;;;;;;;;5054041;28;20048;-84
2022/12/06 16:49:38;;;;;;;84.55;42.95;;;;;;;;;;5054322;28;20044;-82
2022/12/06 16:52:24;;;;;;;85.97;44.17;;;;;;;;;;5054512;28;20510;-81
2022/12/06 16:55:09;;;;;;;76.90;41.30;;;;;;;;;;5054378;28;20041;-81
2022/12/06 16:57:55;;;;;;;84.22;42.88;;;;;;;;;;5054524;28;20044;-83